Stockholm, Maine
Current Conditions -  °F | °C
As of 6:54 AM on Friday 24 Oct 2014 (Local Time) from KCAR Reporting Station
Light Rain Light Rain  
Wind Chill:   Ceiling: 9000
Heat Index:   Visibility: 10mi
Dew Point:   Wind: 12mph
Humidity: 86%   Direction: 360°N
Pressure: 29.79"   Gusts: NA
Location:  47.04°N, 68.14°W
Report Text: KCAR 241054Z AUTO 36010KT 10SM -RA FEW065 OVC090 05/03 A2979 RMK AO2 SLP096 P0002 T00500028 $
Loading
Personal Weather Stations






























Interactive Weather Map
Tropical Storm Tracking
New forecast layout! Learn more

10-Day Weather Forecast

Advertisements
Track Severe Weather on mobile